createdAt,value
2023-02-11T00:01:38.684Z,61.06
2023-02-11T00:04:07.212Z,61.00
2023-02-11T00:06:35.585Z,61.01
2023-02-11T00:09:03.746Z,60.96
2023-02-11T00:11:31.628Z,60.78
2023-02-11T00:13:59.592Z,60.75
2023-02-11T00:16:27.498Z,60.87
2023-02-11T00:18:57.141Z,60.75
2023-02-11T00:21:26.134Z,60.66
2023-02-11T00:23:54.972Z,60.73
2023-02-11T00:26:23.704Z,60.85
2023-02-11T00:28:51.762Z,60.90
2023-02-11T00:31:20.278Z,61.14
2023-02-11T00:33:48.310Z,60.91
2023-02-11T00:36:18.526Z,61.21
2023-02-11T00:38:46.641Z,61.10
2023-02-11T00:41:18.149Z,61.16
2023-02-11T00:43:46.071Z,61.06
2023-02-11T00:46:14.495Z,61.26
2023-02-11T00:48:42.448Z,60.98
2023-02-11T00:51:10.393Z,61.11
2023-02-11T00:53:39.645Z,61.21
2023-02-11T00:56:07.878Z,60.99
2023-02-11T00:58:35.791Z,61.13
2023-02-11T01:01:03.715Z,61.11
2023-02-11T01:03:31.641Z,61.19
2023-02-11T01:05:59.540Z,60.89
2023-02-11T01:08:27.444Z,61.00
2023-02-11T01:10:57.839Z,61.05
2023-02-11T01:13:25.843Z,60.95
2023-02-11T01:15:53.941Z,60.96
2023-02-11T01:18:22.030Z,60.92
2023-02-11T01:20:49.938Z,61.18
2023-02-11T01:23:17.815Z,61.01
2023-02-11T01:25:45.751Z,61.02
2023-02-11T01:28:17.627Z,60.98
2023-02-11T01:30:45.717Z,61.04
2023-02-11T01:33:13.814Z,60.74
2023-02-11T01:35:41.701Z,61.02
2023-02-11T01:38:09.823Z,60.79
2023-02-11T01:40:37.752Z,61.05
2023-02-11T01:43:05.601Z,60.78
2023-02-11T01:45:58.975Z,60.91
2023-02-11T01:48:29.039Z,60.77
2023-02-11T01:51:00.162Z,60.93
2023-02-11T01:53:53.877Z,60.84
2023-02-11T01:56:39.530Z,60.75
2023-02-11T01:59:09.051Z,60.78
2023-02-11T02:01:38.360Z,60.83
2023-02-11T02:04:06.268Z,60.76
2023-02-11T02:06:35.739Z,60.83
2023-02-11T02:09:05.120Z,60.69
2023-02-11T02:11:32.984Z,60.76
2023-02-11T02:14:00.920Z,60.92
2023-02-11T02:16:31.583Z,60.83
2023-02-11T02:19:11.675Z,60.83
2023-02-11T02:21:59.782Z,60.83
2023-02-11T02:24:50.698Z,60.91
2023-02-11T02:27:42.894Z,60.69
2023-02-11T02:30:22.395Z,60.62
2023-02-11T02:33:23.901Z,60.83
2023-02-11T02:35:56.577Z,60.67
2023-02-11T02:38:26.036Z,60.73
2023-02-11T02:40:56.935Z,61.00
2023-02-11T02:43:25.066Z,60.77
2023-02-11T02:45:53.000Z,60.90
2023-02-11T02:48:29.128Z,60.80
2023-02-11T02:51:00.989Z,60.80
2023-02-11T02:53:33.325Z,60.66
2023-02-11T02:56:02.530Z,60.70
2023-02-11T02:58:48.277Z,60.83
2023-02-11T03:01:21.508Z,60.79
2023-02-11T03:03:54.090Z,60.81
2023-02-11T03:06:27.913Z,60.67
2023-02-11T03:08:57.954Z,60.82
2023-02-11T03:11:25.838Z,60.72
2023-02-11T03:13:53.776Z,60.71
2023-02-11T03:16:23.151Z,60.72
2023-02-11T03:18:55.551Z,60.76
2023-02-11T03:21:23.456Z,60.80
2023-02-11T03:23:52.702Z,60.75
2023-02-11T03:26:24.556Z,60.82
2023-02-11T03:28:54.233Z,60.58
2023-02-11T03:31:27.005Z,60.68
2023-02-11T03:33:58.492Z,60.72
2023-02-11T03:36:28.737Z,60.70
2023-02-11T03:38:58.252Z,60.89
2023-02-11T03:41:26.163Z,60.89
2023-02-11T03:43:55.130Z,60.83
2023-02-11T03:46:25.166Z,60.81
2023-02-11T03:48:53.921Z,61.04
2023-02-11T03:51:23.375Z,60.73
2023-02-11T03:53:51.334Z,60.82
2023-02-11T03:56:21.679Z,60.99
2023-02-11T03:58:49.664Z,60.86
2023-02-11T04:01:17.707Z,60.75
2023-02-11T04:03:45.613Z,60.62
2023-02-11T04:06:13.591Z,60.63
2023-02-11T04:08:42.886Z,60.54
2023-02-11T04:11:10.910Z,60.72
2023-02-11T04:13:38.801Z,60.60
2023-02-11T04:16:06.950Z,60.68
2023-02-11T04:18:34.848Z,60.70
2023-02-11T04:21:02.783Z,60.56
2023-02-11T04:23:30.693Z,60.69
2023-02-11T04:25:59.992Z,60.78
2023-02-11T04:28:29.541Z,60.55
2023-02-11T04:30:57.577Z,60.64
2023-02-11T04:33:25.570Z,60.79
2023-02-11T04:35:53.481Z,60.96
2023-02-11T04:38:23.920Z,60.82
2023-02-11T04:40:51.928Z,60.74
2023-02-11T04:43:21.179Z,60.72
2023-02-11T04:45:49.337Z,60.81
2023-02-11T04:48:17.569Z,60.95
2023-02-11T04:50:45.424Z,60.66
2023-02-11T04:53:13.333Z,60.62
2023-02-11T04:55:41.256Z,60.77
2023-02-11T04:58:09.139Z,60.76
2023-02-11T05:00:38.431Z,60.84
2023-02-11T05:03:06.363Z,60.84
2023-02-11T05:05:34.242Z,60.79
2023-02-11T05:08:02.117Z,60.72
2023-02-11T05:10:30.013Z,60.63
2023-02-11T05:12:57.884Z,60.67
2023-02-11T05:15:25.773Z,60.76
2023-02-11T05:17:55.046Z,60.71
2023-02-11T05:20:23.024Z,60.98
2023-02-11T05:22:50.923Z,60.84
2023-02-11T05:25:20.588Z,60.85
2023-02-11T05:27:48.435Z,60.91
2023-02-11T05:30:16.338Z,60.79
2023-02-11T05:32:44.213Z,60.62
2023-02-11T05:35:13.767Z,60.70
2023-02-11T05:37:41.637Z,60.73
2023-02-11T05:40:10.057Z,60.85
2023-02-11T05:42:37.943Z,60.91
2023-02-11T05:45:06.298Z,61.01
2023-02-11T05:47:34.220Z,61.06
2023-02-11T05:50:02.118Z,60.96
2023-02-11T05:52:31.400Z,60.97
2023-02-11T05:54:59.353Z,60.87
2023-02-11T05:57:27.294Z,60.85
2023-02-11T05:59:55.159Z,60.91
2023-02-11T06:02:23.095Z,60.84
2023-02-11T06:04:51.055Z,60.74
2023-02-11T06:07:19.772Z,60.99
2023-02-11T06:09:50.315Z,60.87
2023-02-11T06:12:18.306Z,61.11
2023-02-11T06:14:46.237Z,61.05
2023-02-11T06:17:15.709Z,61.05
2023-02-11T06:19:43.675Z,60.99
2023-02-11T06:22:11.883Z,60.80
2023-02-11T06:24:59.962Z,60.82
2023-02-11T06:27:29.178Z,60.77
2023-02-11T06:29:57.043Z,60.70
2023-02-11T06:32:42.630Z,60.87
2023-02-11T06:35:12.401Z,60.75
2023-02-11T06:37:40.522Z,61.02
2023-02-11T06:40:08.813Z,60.71
2023-02-11T06:42:39.035Z,60.73
2023-02-11T06:45:09.106Z,60.85
2023-02-11T06:47:37.007Z,60.84
2023-02-11T06:50:05.873Z,60.79
2023-02-11T06:52:33.903Z,60.88
2023-02-11T06:55:02.178Z,61.08
2023-02-11T06:57:31.242Z,60.94
2023-02-11T07:00:00.517Z,60.96
2023-02-11T07:02:28.481Z,60.90
2023-02-11T07:04:56.416Z,60.78
2023-02-11T07:07:24.367Z,61.03
2023-02-11T07:09:52.210Z,60.97
2023-02-11T07:12:20.100Z,60.89
2023-02-11T07:14:47.985Z,60.88
2023-02-11T07:17:17.300Z,60.77
2023-02-11T07:19:45.226Z,60.71
2023-02-11T07:22:13.108Z,60.83
2023-02-11T07:24:41.089Z,60.83
2023-02-11T07:27:09.272Z,60.95
2023-02-11T07:29:37.385Z,60.90
2023-02-11T07:32:05.507Z,60.90
2023-02-11T07:34:34.935Z,60.99
2023-02-11T07:37:02.902Z,60.93
2023-02-11T07:39:30.798Z,60.82
2023-02-11T07:41:58.708Z,60.81
2023-02-11T07:44:26.578Z,60.96
2023-02-11T07:46:54.595Z,61.09
2023-02-11T07:49:22.504Z,60.91
2023-02-11T07:51:52.133Z,60.94
2023-02-11T07:54:20.004Z,60.98
2023-02-11T07:56:47.889Z,61.08
2023-02-11T07:59:15.776Z,60.95
2023-02-11T08:01:43.771Z,60.89
2023-02-11T08:04:11.700Z,60.96
2023-02-11T08:06:42.336Z,61.06
2023-02-11T08:09:14.812Z,61.08
2023-02-11T08:11:42.677Z,60.96
2023-02-11T08:14:10.714Z,60.93
2023-02-11T08:16:38.929Z,60.97
2023-02-11T08:19:07.763Z,61.27
2023-02-11T08:21:35.664Z,61.33
2023-02-11T08:24:03.549Z,61.24
2023-02-11T08:26:34.724Z,61.27
2023-02-11T08:29:03.985Z,61.20
2023-02-11T08:31:34.018Z,61.22
2023-02-11T08:34:06.383Z,61.10
2023-02-11T08:36:35.539Z,61.00
2023-02-11T08:39:18.062Z,61.10
2023-02-11T08:41:48.875Z,61.15
2023-02-11T08:44:16.964Z,60.98
2023-02-11T08:46:44.892Z,61.32
2023-02-11T08:49:12.811Z,61.15
2023-02-11T08:51:40.738Z,61.28
2023-02-11T08:54:09.905Z,61.23
2023-02-11T08:56:37.957Z,61.31
2023-02-11T08:59:07.262Z,61.31
2023-02-11T09:01:35.346Z,61.36
2023-02-11T09:04:03.313Z,61.34
2023-02-11T09:06:31.378Z,61.32
2023-02-11T09:08:59.304Z,61.25
2023-02-11T09:11:28.238Z,61.09
2023-02-11T09:13:56.174Z,61.11
2023-02-11T09:16:26.283Z,61.37
2023-02-11T09:19:00.330Z,61.25
2023-02-11T09:21:28.439Z,61.17
2023-02-11T09:23:56.333Z,61.10
2023-02-11T09:26:25.208Z,61.13
2023-02-11T09:28:53.093Z,61.22
2023-02-11T09:31:22.634Z,61.38
2023-02-11T09:33:53.988Z,61.37
2023-02-11T09:36:22.611Z,61.45
2023-02-11T09:38:50.697Z,61.31
2023-02-11T09:41:26.918Z,61.35
2023-02-11T09:43:55.377Z,61.33
2023-02-11T09:46:23.331Z,61.25
2023-02-11T09:48:54.127Z,61.28
2023-02-11T09:51:23.855Z,61.35
2023-02-11T09:53:52.417Z,61.45
2023-02-11T09:56:20.416Z,61.19
2023-02-11T09:58:48.352Z,61.23
2023-02-11T10:01:21.733Z,61.46
2023-02-11T10:04:12.177Z,61.20
2023-02-11T10:06:42.089Z,61.21
2023-02-11T10:09:17.590Z,61.44
2023-02-11T10:11:50.517Z,61.30
2023-02-11T10:14:27.091Z,61.53
2023-02-11T10:17:00.166Z,61.37
2023-02-11T10:19:36.419Z,61.29
2023-02-11T10:22:08.326Z,61.13
2023-02-11T10:24:36.272Z,61.39
2023-02-11T10:27:06.460Z,61.33
2023-02-11T10:29:37.105Z,61.08
2023-02-11T10:32:08.165Z,61.14
2023-02-11T10:34:39.217Z,61.04
2023-02-11T10:37:07.252Z,61.25
2023-02-11T10:39:35.332Z,61.21
2023-02-11T10:42:04.014Z,61.12
2023-02-11T10:44:33.232Z,61.31
2023-02-11T10:47:04.359Z,61.04
2023-02-11T10:49:38.250Z,61.26
2023-02-11T10:52:19.910Z,61.13
2023-02-11T10:55:01.909Z,60.91
2023-02-11T10:57:32.086Z,61.22
2023-02-11T11:00:01.571Z,60.99
2023-02-11T11:02:32.218Z,61.44
2023-02-11T11:05:02.545Z,61.01
2023-02-11T11:07:31.038Z,60.96
2023-02-11T11:10:00.285Z,61.05
2023-02-11T11:12:36.501Z,60.84
2023-02-11T11:15:16.554Z,60.78
2023-02-11T11:17:44.551Z,60.66
2023-02-11T11:20:21.302Z,60.58
2023-02-11T11:22:49.394Z,60.80
2023-02-11T11:25:24.797Z,60.67
2023-02-11T11:27:52.776Z,60.92
2023-02-11T11:30:20.801Z,60.33
2023-02-11T11:32:48.726Z,60.69
2023-02-11T11:35:26.438Z,60.60
2023-02-11T11:37:55.371Z,60.36
2023-02-11T11:40:24.577Z,60.13
2023-02-11T11:43:04.756Z,60.06
2023-02-11T11:45:32.623Z,60.02
2023-02-11T11:48:00.866Z,60.26
2023-02-11T11:50:32.098Z,60.47
2023-02-11T11:53:04.201Z,60.07
2023-02-11T11:55:35.138Z,60.39
2023-02-11T11:58:03.000Z,60.31
2023-02-11T12:00:36.392Z,60.23
2023-02-11T12:03:27.204Z,59.74
2023-02-11T12:06:04.622Z,59.59
2023-02-11T12:08:35.916Z,59.81
2023-02-11T12:11:07.967Z,59.65
2023-02-11T12:13:45.281Z,59.49
2023-02-11T12:16:20.495Z,59.62
2023-02-11T12:19:07.833Z,59.76
2023-02-11T12:21:41.005Z,59.66
2023-02-11T12:24:17.623Z,59.21
2023-02-11T12:26:46.711Z,59.16
2023-02-11T12:29:20.633Z,59.24
2023-02-11T12:31:56.229Z,59.34
2023-02-11T12:34:50.579Z,59.30
2023-02-11T12:37:31.067Z,59.03
2023-02-11T12:40:02.703Z,59.09
2023-02-11T12:42:53.288Z,59.21
2023-02-11T12:45:27.521Z,59.30
2023-02-11T12:48:06.673Z,59.20
2023-02-11T12:50:37.305Z,59.28
2023-02-11T12:53:25.346Z,58.99
2023-02-11T12:55:55.718Z,59.22
2023-02-11T12:58:35.467Z,58.77
2023-02-11T13:01:13.670Z,58.39
2023-02-11T13:03:42.849Z,58.42
2023-02-11T13:06:12.096Z,58.42
2023-02-11T13:08:42.242Z,58.59
2023-02-11T13:11:14.385Z,57.91
2023-02-11T13:13:48.553Z,57.83
2023-02-11T13:16:20.723Z,57.63
2023-02-11T13:18:51.822Z,57.80
2023-02-11T13:21:35.055Z,57.54
2023-02-11T13:24:09.270Z,57.23
2023-02-11T13:26:41.646Z,57.53
2023-02-11T13:29:17.279Z,57.46
2023-02-11T13:31:53.777Z,56.98
2023-02-11T13:34:26.341Z,57.43
2023-02-11T13:36:57.492Z,57.05
2023-02-11T13:39:26.812Z,56.91
2023-02-11T13:42:02.827Z,56.19
2023-02-11T13:44:30.778Z,56.05
2023-02-11T13:47:01.369Z,56.36
2023-02-11T13:49:35.352Z,56.13
2023-02-11T13:52:04.340Z,55.69
2023-02-11T13:54:35.173Z,55.37
2023-02-11T13:57:34.808Z,54.80
2023-02-11T14:00:03.692Z,54.35
2023-02-11T14:02:50.667Z,54.40
2023-02-11T14:05:44.678Z,54.17
2023-02-11T14:08:39.346Z,53.31
2023-02-11T14:11:12.424Z,53.17
2023-02-11T14:14:15.125Z,53.12
2023-02-11T14:17:22.506Z,52.51
2023-02-11T14:19:50.809Z,52.61
2023-02-11T14:22:20.728Z,52.13
2023-02-11T14:24:53.317Z,52.23
2023-02-11T14:27:28.755Z,51.93
2023-02-11T14:30:09.275Z,51.81
2023-02-11T14:32:42.689Z,51.45
2023-02-11T14:35:11.913Z,51.16
2023-02-11T14:37:50.366Z,51.03
2023-02-11T14:40:27.362Z,50.65
2023-02-11T14:42:56.936Z,50.54
2023-02-11T14:45:28.982Z,50.25
2023-02-11T14:47:59.358Z,50.03
2023-02-11T14:50:28.130Z,50.17
2023-02-11T14:52:57.743Z,50.34
2023-02-11T14:55:30.274Z,49.96
2023-02-11T14:58:13.812Z,50.25
2023-02-11T15:00:52.746Z,50.06
2023-02-11T15:03:31.589Z,50.17
2023-02-11T15:06:00.131Z,50.24
2023-02-11T15:08:28.222Z,50.33
2023-02-11T15:10:59.956Z,50.31
2023-02-11T15:13:32.035Z,50.16
2023-02-11T15:16:02.158Z,50.13
2023-02-11T15:18:35.299Z,50.08
2023-02-11T15:21:03.222Z,49.98
2023-02-11T15:23:31.092Z,50.25
2023-02-11T15:26:03.214Z,50.02
2023-02-11T15:28:33.644Z,50.36
2023-02-11T15:31:02.786Z,50.19
2023-02-11T15:33:32.264Z,50.52
2023-02-11T15:36:00.682Z,50.17
2023-02-11T15:38:29.895Z,50.40
2023-02-11T15:40:58.575Z,50.07
2023-02-11T15:43:26.447Z,50.36
2023-02-11T15:45:58.678Z,50.24
2023-02-11T15:48:29.046Z,50.29
2023-02-11T15:50:58.693Z,50.14
2023-02-11T15:53:30.517Z,50.42
2023-02-11T15:56:02.006Z,50.38
2023-02-11T15:58:30.150Z,50.35
2023-02-11T16:01:00.037Z,50.24
2023-02-11T16:03:32.390Z,50.55
2023-02-11T16:06:18.739Z,50.08
2023-02-11T16:08:58.025Z,50.22
2023-02-11T16:11:27.793Z,49.95
2023-02-11T16:13:55.773Z,50.38
2023-02-11T16:16:25.687Z,50.05
2023-02-11T16:19:04.261Z,50.12
2023-02-11T16:21:35.443Z,50.31
2023-02-11T16:24:03.919Z,50.09
2023-02-11T16:26:33.793Z,50.27
2023-02-11T16:29:11.251Z,50.26
2023-02-11T16:31:42.217Z,50.14
2023-02-11T16:34:15.145Z,50.45
2023-02-11T16:36:43.034Z,50.62
2023-02-11T16:39:11.073Z,50.24
2023-02-11T16:41:38.953Z,50.30
2023-02-11T16:44:06.902Z,50.61
2023-02-11T16:46:34.834Z,50.41
2023-02-11T16:49:09.245Z,50.62
2023-02-11T16:51:39.426Z,50.81
2023-02-11T16:54:07.354Z,50.37
2023-02-11T16:56:35.300Z,50.42
2023-02-11T16:59:03.277Z,50.47
2023-02-11T17:01:31.301Z,50.29
2023-02-11T17:03:59.194Z,50.46
2023-02-11T17:06:28.721Z,50.19
2023-02-11T17:08:56.690Z,50.18
2023-02-11T17:11:24.587Z,50.12
2023-02-11T17:13:52.420Z,50.05
2023-02-11T17:16:21.323Z,49.88
2023-02-11T17:18:49.346Z,50.21
2023-02-11T17:21:17.249Z,50.26
2023-02-11T17:23:46.892Z,50.21
2023-02-11T17:26:14.775Z,50.27
2023-02-11T17:28:43.732Z,50.10
2023-02-11T17:31:11.737Z,49.97
2023-02-11T17:33:39.871Z,50.13
2023-02-11T17:36:08.633Z,50.13
2023-02-11T17:38:36.984Z,50.17
2023-02-11T17:41:06.761Z,50.36
2023-02-11T17:43:34.623Z,50.30
2023-02-11T17:46:02.665Z,50.64
2023-02-11T17:48:30.725Z,50.57
2023-02-11T17:50:58.651Z,50.39
2023-02-11T17:53:26.575Z,50.25
2023-02-11T17:55:56.039Z,50.48
2023-02-11T17:58:25.277Z,50.64
2023-02-11T18:00:53.229Z,50.79
2023-02-11T18:03:21.147Z,50.87
2023-02-11T18:05:49.204Z,50.87
2023-02-11T18:08:17.211Z,50.69
2023-02-11T18:10:45.270Z,50.79
2023-02-11T18:13:13.381Z,50.93
2023-02-11T18:15:42.636Z,50.78
2023-02-11T18:18:10.543Z,50.72
2023-02-11T18:20:38.421Z,50.65
2023-02-11T18:23:06.332Z,50.95
2023-02-11T18:25:34.301Z,50.85
2023-02-11T18:28:02.547Z,51.09
2023-02-11T18:30:30.657Z,50.86
2023-02-11T18:32:59.947Z,51.19
2023-02-11T18:35:27.817Z,51.19
2023-02-11T18:37:55.691Z,51.41
2023-02-11T18:40:23.611Z,51.19
2023-02-11T18:42:51.508Z,51.35
2023-02-11T18:45:19.523Z,51.47
2023-02-11T18:47:47.409Z,51.13
2023-02-11T18:50:16.800Z,51.41
2023-02-11T18:52:44.799Z,51.24
2023-02-11T18:55:12.716Z,51.33
2023-02-11T18:57:40.606Z,51.42
2023-02-11T19:00:10.090Z,51.37
2023-02-11T19:02:38.055Z,51.26
2023-02-11T19:05:06.834Z,51.48
2023-02-11T19:07:36.538Z,51.38
2023-02-11T19:10:04.806Z,51.42
2023-02-11T19:12:33.177Z,51.31
2023-02-11T19:15:01.579Z,51.38
2023-02-11T19:17:29.525Z,51.36
2023-02-11T19:19:57.440Z,51.35
2023-02-11T19:22:25.337Z,51.53
2023-02-11T19:24:54.574Z,51.38
2023-02-11T19:27:22.452Z,51.65
2023-02-11T19:29:50.320Z,51.59
2023-02-11T19:32:18.243Z,51.62
2023-02-11T19:34:46.206Z,51.39
2023-02-11T19:37:14.230Z,51.70
2023-02-11T19:39:42.238Z,51.63
2023-02-11T19:42:11.568Z,51.58
2023-02-11T19:44:39.494Z,51.62
2023-02-11T19:47:07.893Z,51.76
2023-02-11T19:49:35.823Z,51.63
2023-02-11T19:52:03.683Z,51.73
2023-02-11T19:54:40.486Z,51.70
2023-02-11T19:57:08.383Z,51.79
2023-02-11T19:59:37.914Z,51.90
2023-02-11T20:02:05.815Z,51.74
2023-02-11T20:04:33.720Z,51.79
2023-02-11T20:07:01.598Z,51.83
2023-02-11T20:09:31.180Z,51.95
2023-02-11T20:11:59.172Z,51.74
2023-02-11T20:14:28.149Z,51.97
2023-02-11T20:16:57.647Z,51.83
2023-02-11T20:19:25.553Z,51.82
2023-02-11T20:21:55.749Z,51.96
2023-02-11T20:24:23.922Z,52.09
2023-02-11T20:26:55.530Z,52.01
2023-02-11T20:29:23.794Z,51.89
2023-02-11T20:31:51.854Z,52.04
2023-02-11T20:34:21.994Z,52.07
2023-02-11T20:36:52.074Z,52.02
2023-02-11T20:39:21.902Z,51.95
2023-02-11T20:41:50.320Z,52.07
2023-02-11T20:44:18.207Z,52.14
2023-02-11T20:46:47.105Z,52.27
2023-02-11T20:49:15.739Z,52.31
2023-02-11T20:51:45.095Z,52.47
2023-02-11T20:54:13.758Z,52.62
2023-02-11T20:56:41.678Z,52.64
2023-02-11T20:59:09.564Z,52.68
2023-02-11T21:01:40.310Z,52.84
2023-02-11T21:04:10.857Z,52.87
2023-02-11T21:06:39.768Z,52.75
2023-02-11T21:09:09.759Z,52.95
2023-02-11T21:11:37.661Z,52.69
2023-02-11T21:14:05.489Z,52.59
2023-02-11T21:16:33.383Z,52.77
2023-02-11T21:19:02.868Z,52.84
2023-02-11T21:21:30.894Z,52.71
2023-02-11T21:23:58.923Z,52.79
2023-02-11T21:26:28.173Z,52.90
2023-02-11T21:28:56.155Z,52.87
2023-02-11T21:31:26.139Z,52.75
2023-02-11T21:33:55.162Z,52.82
2023-02-11T21:36:23.149Z,52.85
2023-02-11T21:38:51.146Z,52.72
2023-02-11T21:41:19.086Z,52.72
2023-02-11T21:43:48.386Z,52.93
2023-02-11T21:46:16.720Z,52.96
2023-02-11T21:48:44.677Z,53.00
2023-02-11T21:51:14.015Z,53.00
2023-02-11T21:53:41.927Z,53.01
2023-02-11T21:56:10.993Z,52.90
2023-02-11T21:58:38.973Z,52.88
2023-02-11T22:01:13.458Z,52.90
2023-02-11T22:03:41.408Z,52.82
2023-02-11T22:06:10.079Z,53.19
2023-02-11T22:08:38.017Z,53.04
2023-02-11T22:11:06.374Z,53.01
2023-02-11T22:13:34.252Z,52.85
2023-02-11T22:16:02.813Z,52.97
2023-02-11T22:18:32.072Z,52.96
2023-02-11T22:21:00.960Z,52.90
2023-02-11T22:23:29.262Z,52.96
2023-02-11T22:25:57.319Z,52.88
2023-02-11T22:28:26.195Z,53.06
2023-02-11T22:30:55.373Z,53.11
2023-02-11T22:33:23.543Z,53.16
2023-02-11T22:35:58.671Z,52.96
2023-02-11T22:38:26.883Z,53.14
2023-02-11T22:40:54.780Z,53.24
2023-02-11T22:43:22.696Z,53.14
2023-02-11T22:45:50.789Z,53.18
2023-02-11T22:48:21.378Z,53.30
2023-02-11T22:50:52.102Z,53.24
2023-02-11T22:53:20.115Z,53.27
2023-02-11T22:55:47.976Z,53.24
2023-02-11T22:58:16.310Z,53.37
2023-02-11T23:00:44.203Z,53.33
2023-02-11T23:03:12.206Z,53.24
2023-02-11T23:05:40.237Z,53.30
2023-02-11T23:08:10.015Z,53.29
2023-02-11T23:10:38.008Z,53.25
2023-02-11T23:13:05.977Z,53.21
2023-02-11T23:15:33.986Z,53.26
2023-02-11T23:18:01.959Z,53.42
2023-02-11T23:20:29.900Z,53.36
2023-02-11T23:22:57.772Z,53.61
2023-02-11T23:25:27.168Z,53.34
2023-02-11T23:27:55.097Z,53.40
2023-02-11T23:30:23.164Z,53.49
2023-02-11T23:32:51.092Z,53.48
2023-02-11T23:35:23.228Z,53.54
2023-02-11T23:37:51.545Z,53.36
2023-02-11T23:40:19.736Z,53.44
2023-02-11T23:42:49.147Z,53.32
2023-02-11T23:45:17.275Z,53.25
2023-02-11T23:47:45.189Z,53.35
2023-02-11T23:50:13.358Z,53.28
2023-02-11T23:52:41.238Z,53.17
2023-02-11T23:55:09.436Z,53.36
2023-02-11T23:57:37.338Z,53.36
